createdAt,value
2017-08-24T17:47:37.344Z,30.66
2017-08-24T17:50:04.907Z,30.03
2017-08-24T17:52:32.491Z,30.41
2017-08-24T17:55:00.093Z,29.55
2017-08-24T17:57:27.638Z,29.22
2017-08-24T17:59:55.159Z,29.00
2017-08-24T18:02:23.289Z,28.70
2017-08-24T18:04:50.789Z,30.15
2017-08-24T18:07:18.409Z,29.90
2017-08-24T18:09:46.299Z,29.12
2017-08-24T18:12:13.868Z,29.02
2017-08-24T18:14:41.406Z,29.13
2017-08-24T18:17:09.001Z,29.31
2017-08-24T18:19:36.563Z,29.68
2017-08-24T18:22:04.109Z,30.02
2017-08-24T18:24:31.718Z,31.05
2017-08-24T18:27:00.111Z,30.68
2017-08-24T18:29:27.618Z,30.75
2017-08-24T18:31:55.199Z,32.04
2017-08-24T18:34:23.589Z,33.58
2017-08-24T18:36:52.234Z,33.39
2017-08-24T18:39:20.542Z,32.49
2017-08-24T18:41:48.054Z,31.82
2017-08-24T18:44:15.593Z,31.46
2017-08-24T18:46:43.512Z,31.51
2017-08-24T18:49:11.037Z,31.60
2017-08-24T18:51:38.578Z,31.87
2017-08-24T18:54:06.167Z,32.01
2017-08-24T18:56:34.729Z,32.31
2017-08-24T18:59:02.265Z,32.50
2017-08-24T19:01:29.804Z,32.66
2017-08-24T19:03:57.365Z,32.73
2017-08-24T19:06:24.915Z,33.55
2017-08-24T19:08:52.521Z,33.71
2017-08-24T19:11:20.014Z,36.78
2017-08-24T19:13:47.502Z,36.30
2017-08-24T19:16:15.108Z,36.25
2017-08-24T19:18:42.599Z,36.16
2017-08-24T19:21:10.172Z,35.73
2017-08-24T19:23:37.790Z,35.55
2017-08-24T19:26:05.315Z,35.76
2017-08-24T19:28:32.853Z,35.35
2017-08-24T19:31:00.467Z,35.18
2017-08-24T19:33:27.967Z,35.09
2017-08-24T19:35:55.985Z,34.81
2017-08-24T19:38:23.663Z,35.02
2017-08-24T19:40:51.171Z,34.72
2017-08-24T19:43:18.729Z,34.63
2017-08-24T19:45:46.306Z,34.63
